createdAt,value
2023-05-06T00:00:50.342Z,988.86
2023-05-06T00:01:50.329Z,988.85
2023-05-06T00:02:50.499Z,988.85
2023-05-06T00:03:50.425Z,988.88
2023-05-06T00:04:50.421Z,988.90
2023-05-06T00:05:50.311Z,988.86
2023-05-06T00:06:50.279Z,988.84
2023-05-06T00:07:50.316Z,988.87
2023-05-06T00:08:50.286Z,988.87
2023-05-06T00:09:50.249Z,988.89
2023-05-06T00:10:50.288Z,988.88
2023-05-06T00:11:50.230Z,988.83
2023-05-06T00:12:50.221Z,988.81
2023-05-06T00:13:51.231Z,988.84
2023-05-06T00:14:50.205Z,988.85
2023-05-06T00:15:50.265Z,988.86
2023-05-06T00:16:50.269Z,988.88
2023-05-06T00:17:50.230Z,988.85
2023-05-06T00:18:50.230Z,988.80
2023-05-06T00:19:50.154Z,988.90
2023-05-06T00:20:50.159Z,988.85
2023-05-06T00:21:50.160Z,988.85
2023-05-06T00:22:50.130Z,988.88
2023-05-06T00:23:50.123Z,988.82
2023-05-06T00:24:50.155Z,988.77
2023-05-06T00:25:50.169Z,988.81
2023-05-06T00:26:50.112Z,988.81
2023-05-06T00:27:50.088Z,988.80
2023-05-06T00:28:50.077Z,988.80
2023-05-06T00:29:50.059Z,988.83
2023-05-06T00:30:50.104Z,988.82
2023-05-06T00:31:50.139Z,988.88
2023-05-06T00:32:50.103Z,988.87
2023-05-06T00:33:50.043Z,988.91
2023-05-06T00:34:50.055Z,988.91
2023-05-06T00:35:50.031Z,988.95
2023-05-06T00:36:49.990Z,988.96
2023-05-06T00:37:49.982Z,988.95
2023-05-06T00:38:49.992Z,989.00
2023-05-06T00:39:49.994Z,988.95
2023-05-06T00:40:50.007Z,989.00
2023-05-06T00:41:49.958Z,989.00
2023-05-06T00:42:49.977Z,988.99
2023-05-06T00:43:49.931Z,989.01
2023-05-06T00:44:49.933Z,989.05
2023-05-06T00:45:49.932Z,988.96
2023-05-06T00:46:49.979Z,989.04
2023-05-06T00:47:50.153Z,989.03
2023-05-06T00:48:49.909Z,989.01
2023-05-06T00:49:49.872Z,988.97
2023-05-06T00:50:49.916Z,989.03
2023-05-06T00:51:49.856Z,989.00
2023-05-06T00:52:49.848Z,989.00
2023-05-06T00:53:49.838Z,989.02
2023-05-06T00:54:49.831Z,989.03
2023-05-06T00:55:49.826Z,988.94
2023-05-06T00:56:49.797Z,988.94
2023-05-06T00:57:49.791Z,988.97
2023-05-06T00:58:49.779Z,988.95
2023-05-06T00:59:49.793Z,988.97
2023-05-06T01:00:49.778Z,989.01
2023-05-06T01:01:49.761Z,988.99
2023-05-06T01:02:49.853Z,988.93
2023-05-06T01:03:49.850Z,988.94
2023-05-06T01:04:49.958Z,988.90
2023-05-06T01:05:49.745Z,988.88
2023-05-06T01:06:49.701Z,988.86
2023-05-06T01:07:49.721Z,988.80
2023-05-06T01:08:49.721Z,988.85
2023-05-06T01:09:49.694Z,988.86
2023-05-06T01:10:49.709Z,988.86
2023-05-06T01:11:50.666Z,988.86
2023-05-06T01:12:49.739Z,988.85
2023-05-06T01:13:49.667Z,988.79
2023-05-06T01:14:49.626Z,988.76
2023-05-06T01:15:49.664Z,988.76
2023-05-06T01:16:49.675Z,988.78
2023-05-06T01:17:49.647Z,988.76
2023-05-06T01:18:49.607Z,988.79
2023-05-06T01:19:49.646Z,988.79
2023-05-06T01:20:49.573Z,988.82
2023-05-06T01:21:49.642Z,988.80
2023-05-06T01:22:50.341Z,988.74
2023-05-06T01:23:49.542Z,988.79
2023-05-06T01:24:49.535Z,988.79
2023-05-06T01:25:49.520Z,988.84
2023-05-06T01:26:49.534Z,988.87
2023-05-06T01:27:49.506Z,988.92
2023-05-06T01:28:49.518Z,988.87
2023-05-06T01:29:49.489Z,988.87
2023-05-06T01:30:49.503Z,988.94
2023-05-06T01:31:49.453Z,988.87
2023-05-06T01:32:49.590Z,988.88
2023-05-06T01:33:49.462Z,988.85
2023-05-06T01:34:49.450Z,988.88
2023-05-06T01:35:49.510Z,988.95
2023-05-06T01:36:49.409Z,988.94
2023-05-06T01:37:49.449Z,988.93
2023-05-06T01:38:49.397Z,988.97
2023-05-06T01:39:49.397Z,988.99
2023-05-06T01:40:49.383Z,989.02
2023-05-06T01:41:49.370Z,988.97
2023-05-06T01:42:49.395Z,988.94
2023-05-06T01:43:49.354Z,989.03
2023-05-06T01:44:49.366Z,988.97
2023-05-06T01:45:49.395Z,988.95
2023-05-06T01:46:49.342Z,988.97
2023-05-06T01:47:49.348Z,988.95
2023-05-06T01:48:49.296Z,988.95
2023-05-06T01:49:49.307Z,988.99
2023-05-06T01:50:49.271Z,988.97
2023-05-06T01:51:49.355Z,988.99
2023-05-06T01:52:49.261Z,988.93
2023-05-06T01:53:49.248Z,988.94
2023-05-06T01:54:49.240Z,988.93
2023-05-06T01:55:49.230Z,988.97
2023-05-06T01:56:49.249Z,988.98
2023-05-06T01:57:49.206Z,988.98
2023-05-06T01:58:49.187Z,988.99
2023-05-06T01:59:49.185Z,988.97
2023-05-06T02:00:49.208Z,988.98
2023-05-06T02:01:49.212Z,988.98
2023-05-06T02:02:49.240Z,988.96
2023-05-06T02:03:49.225Z,988.94
2023-05-06T02:04:49.136Z,988.96
2023-05-06T02:05:49.148Z,988.95
2023-05-06T02:06:49.124Z,988.96
2023-05-06T02:07:49.188Z,988.97
2023-05-06T02:08:49.103Z,988.95
2023-05-06T02:09:49.070Z,988.98
2023-05-06T02:10:49.065Z,988.92
2023-05-06T02:11:49.068Z,988.94
2023-05-06T02:12:49.135Z,988.95
2023-05-06T02:13:49.045Z,988.93
2023-05-06T02:14:49.039Z,988.96
2023-05-06T02:15:49.085Z,988.94
2023-05-06T02:16:49.026Z,988.96
2023-05-06T02:17:49.002Z,988.95
2023-05-06T02:18:49.053Z,988.98
2023-05-06T02:19:48.992Z,988.94
2023-05-06T02:20:48.988Z,988.98
2023-05-06T02:21:48.973Z,988.97
2023-05-06T02:22:48.961Z,988.88
2023-05-06T02:23:48.975Z,988.97
2023-05-06T02:24:49.020Z,988.89
2023-05-06T02:25:48.979Z,988.93
2023-05-06T02:26:48.942Z,988.94
2023-05-06T02:27:48.910Z,988.94
2023-05-06T02:28:48.896Z,988.95
2023-05-06T02:29:48.954Z,988.99
2023-05-06T02:30:48.887Z,989.02
2023-05-06T02:31:48.953Z,988.97
2023-05-06T02:32:48.943Z,988.97
2023-05-06T02:33:48.869Z,989.01
2023-05-06T02:34:48.850Z,989.04
2023-05-06T02:35:48.860Z,988.99
2023-05-06T02:36:48.831Z,989.01
2023-05-06T02:37:48.836Z,988.95
2023-05-06T02:38:48.797Z,988.97
2023-05-06T02:39:49.850Z,988.96
2023-05-06T02:40:48.795Z,989.04
2023-05-06T02:41:48.784Z,988.94
2023-05-06T02:42:48.838Z,989.02
2023-05-06T02:43:48.763Z,989.05
2023-05-06T02:44:48.753Z,989.02
2023-05-06T02:45:48.754Z,988.95
2023-05-06T02:46:48.758Z,989.01
2023-05-06T02:47:48.754Z,988.92
2023-05-06T02:48:48.733Z,988.91
2023-05-06T02:49:48.704Z,988.91
2023-05-06T02:50:48.697Z,988.94
2023-05-06T02:51:48.700Z,988.99
2023-05-06T02:52:48.702Z,989.00
2023-05-06T02:53:48.658Z,988.98
2023-05-06T02:54:48.685Z,988.93
2023-05-06T02:55:48.711Z,988.94
2023-05-06T02:56:48.636Z,988.99
2023-05-06T02:57:48.655Z,988.98
2023-05-06T02:58:48.615Z,988.97
2023-05-06T02:59:48.619Z,988.97
2023-05-06T03:00:48.614Z,988.93
2023-05-06T03:01:48.615Z,988.91
2023-05-06T03:02:48.656Z,988.92
2023-05-06T03:03:48.603Z,988.90
2023-05-06T03:04:48.626Z,988.93
2023-05-06T03:05:48.673Z,988.98
2023-05-06T03:06:48.525Z,988.86
2023-05-06T03:07:48.532Z,988.90
2023-05-06T03:08:48.533Z,988.94
2023-05-06T03:09:48.539Z,988.96
2023-05-06T03:10:48.491Z,988.91
2023-05-06T03:11:48.541Z,988.88
2023-05-06T03:12:48.493Z,988.93
2023-05-06T03:13:48.458Z,988.93
2023-05-06T03:14:48.488Z,988.98
2023-05-06T03:15:48.440Z,989.02
2023-05-06T03:16:48.467Z,989.04
2023-05-06T03:17:48.473Z,989.07
2023-05-06T03:18:48.423Z,989.04
2023-05-06T03:19:48.441Z,989.08
2023-05-06T03:20:48.406Z,989.05
2023-05-06T03:21:48.464Z,989.03
2023-05-06T03:22:48.394Z,989.04
2023-05-06T03:23:48.352Z,989.07
2023-05-06T03:24:48.387Z,989.10
2023-05-06T03:25:48.366Z,989.06
2023-05-06T03:27:21.372Z,989.12
2023-05-06T03:27:48.320Z,989.18
2023-05-06T03:28:48.330Z,989.15
2023-05-06T03:29:48.483Z,989.19
2023-05-06T03:30:48.284Z,989.17
2023-05-06T03:31:48.281Z,989.15
2023-05-06T03:32:48.314Z,989.15
2023-05-06T03:33:48.270Z,989.12
2023-05-06T03:34:48.259Z,989.08
2023-05-06T03:35:48.270Z,989.15
2023-05-06T03:36:48.226Z,989.15
2023-05-06T03:37:48.282Z,989.08
2023-05-06T03:38:48.231Z,989.08
2023-05-06T03:39:48.210Z,989.08
2023-05-06T03:40:49.198Z,989.09
2023-05-06T03:41:48.183Z,989.08
2023-05-06T03:42:48.259Z,989.11
2023-05-06T03:43:48.168Z,989.06
2023-05-06T03:44:48.206Z,989.11
2023-05-06T03:45:48.198Z,989.12
2023-05-06T03:46:48.170Z,989.20
2023-05-06T03:47:48.442Z,989.16
2023-05-06T03:48:48.114Z,989.18
2023-05-06T03:49:48.126Z,989.11
2023-05-06T03:50:48.103Z,989.25
2023-05-06T03:51:48.100Z,989.26
2023-05-06T03:52:48.115Z,989.25
2023-05-06T03:53:48.078Z,989.23
2023-05-06T03:54:48.066Z,989.16
2023-05-06T03:55:48.068Z,989.23
2023-05-06T03:56:48.032Z,989.23
2023-05-06T03:57:48.082Z,989.23
2023-05-06T03:58:48.237Z,989.25
2023-05-06T03:59:48.022Z,989.24
2023-05-06T04:00:48.026Z,989.31
2023-05-06T04:01:48.013Z,989.33
2023-05-06T04:02:48.027Z,989.32
2023-05-06T04:03:48.041Z,989.36
2023-05-06T04:04:47.990Z,989.36
2023-05-06T04:05:47.953Z,989.37
2023-05-06T04:06:47.986Z,989.37
2023-05-06T04:07:47.936Z,989.34
2023-05-06T04:08:47.927Z,989.35
2023-05-06T04:09:47.936Z,989.38
2023-05-06T04:10:47.915Z,989.36
2023-05-06T04:11:47.895Z,989.40
2023-05-06T04:12:47.935Z,989.44
2023-05-06T04:13:47.884Z,989.43
2023-05-06T04:14:47.867Z,989.42
2023-05-06T04:15:47.997Z,989.46
2023-05-06T04:16:47.844Z,989.46
2023-05-06T04:17:47.923Z,989.44
2023-05-06T04:18:47.830Z,989.51
2023-05-06T04:19:47.914Z,989.47
2023-05-06T04:20:47.815Z,989.52
2023-05-06T04:21:47.799Z,989.50
2023-05-06T04:22:47.826Z,989.51
2023-05-06T04:23:47.833Z,989.51
2023-05-06T04:24:47.763Z,989.51
2023-05-06T04:25:47.765Z,989.49
2023-05-06T04:26:47.775Z,989.50
2023-05-06T04:27:47.770Z,989.51
2023-05-06T04:28:47.764Z,989.54
2023-05-06T04:29:47.800Z,989.53
2023-05-06T04:30:47.835Z,989.57
2023-05-06T04:31:47.759Z,989.57
2023-05-06T04:32:47.712Z,989.58
2023-05-06T04:33:47.700Z,989.55
2023-05-06T04:34:47.697Z,989.55
2023-05-06T04:35:47.707Z,989.59
2023-05-06T04:36:47.667Z,989.57
2023-05-06T04:37:47.649Z,989.56
2023-05-06T04:38:47.686Z,989.61
2023-05-06T04:39:47.627Z,989.56
2023-05-06T04:40:47.641Z,989.58
2023-05-06T04:41:47.621Z,989.59
2023-05-06T04:42:47.598Z,989.62
2023-05-06T04:43:47.600Z,989.58
2023-05-06T04:44:47.593Z,989.61
2023-05-06T04:45:47.672Z,989.57
2023-05-06T04:46:47.676Z,989.57
2023-05-06T04:47:47.650Z,989.65
2023-05-06T04:48:47.553Z,989.61
2023-05-06T04:49:47.558Z,989.63
2023-05-06T04:50:47.536Z,989.65
2023-05-06T04:51:47.518Z,989.69
2023-05-06T04:52:47.525Z,989.70
2023-05-06T04:53:47.521Z,989.70
2023-05-06T04:54:47.496Z,989.68
2023-05-06T04:55:47.501Z,989.70
2023-05-06T04:56:47.461Z,989.77
2023-05-06T04:57:47.480Z,989.71
2023-05-06T04:58:47.449Z,989.76
2023-05-06T04:59:47.438Z,989.76
2023-05-06T05:00:47.463Z,989.75
2023-05-06T05:01:47.436Z,989.69
2023-05-06T05:02:47.529Z,989.78
2023-05-06T05:03:47.416Z,989.76
2023-05-06T05:04:47.412Z,989.77
2023-05-06T05:05:47.373Z,989.79
2023-05-06T05:06:47.395Z,989.81
2023-05-06T05:07:47.371Z,989.85
2023-05-06T05:08:47.353Z,989.88
2023-05-06T05:09:47.353Z,989.88
2023-05-06T05:10:47.351Z,989.88
2023-05-06T05:11:47.403Z,989.84
2023-05-06T05:12:47.367Z,989.88
2023-05-06T05:13:47.358Z,989.86
2023-05-06T05:14:47.298Z,989.86
2023-05-06T05:15:47.287Z,989.87
2023-05-06T05:16:47.372Z,989.86
2023-05-06T05:17:47.338Z,989.87
2023-05-06T05:18:47.251Z,989.85
2023-05-06T05:19:47.242Z,989.91
2023-05-06T05:20:47.242Z,989.99
2023-05-06T05:21:47.245Z,989.96
2023-05-06T05:22:47.247Z,989.95
2023-05-06T05:23:47.206Z,989.99
2023-05-06T05:24:47.188Z,989.93
2023-05-06T05:25:47.194Z,989.97
2023-05-06T05:26:47.226Z,990.01
2023-05-06T05:27:47.314Z,990.00
2023-05-06T05:28:47.157Z,990.07
2023-05-06T05:29:47.198Z,990.02
2023-05-06T05:30:47.297Z,989.96
2023-05-06T05:31:47.184Z,990.02
2023-05-06T05:32:47.127Z,990.02
2023-05-06T05:33:47.139Z,990.03
2023-05-06T05:34:47.284Z,990.00
2023-05-06T05:35:47.093Z,990.06
2023-05-06T05:36:47.070Z,990.02
2023-05-06T05:37:47.072Z,990.06
2023-05-06T05:38:47.063Z,990.06
2023-05-06T05:39:47.052Z,990.03
2023-05-06T05:40:47.058Z,990.12
2023-05-06T05:41:47.067Z,989.99
2023-05-06T05:42:47.016Z,990.06
2023-05-06T05:43:47.044Z,990.02
2023-05-06T05:44:47.003Z,990.15
2023-05-06T05:45:47.017Z,990.01
2023-05-06T05:46:47.079Z,990.08
2023-05-06T05:47:47.099Z,990.06
2023-05-06T05:48:46.966Z,990.09
2023-05-06T05:49:46.963Z,990.08
2023-05-06T05:50:47.009Z,990.07
2023-05-06T05:51:46.951Z,990.14
2023-05-06T05:52:46.946Z,990.15
2023-05-06T05:53:46.908Z,990.09
2023-05-06T05:54:46.897Z,990.13
2023-05-06T05:55:46.882Z,990.09
2023-05-06T05:56:46.913Z,990.11
2023-05-06T05:57:46.864Z,990.12
2023-05-06T05:58:46.913Z,990.15
2023-05-06T05:59:46.854Z,990.10
2023-05-06T06:00:47.868Z,990.09
2023-05-06T06:01:46.841Z,990.09
2023-05-06T06:02:46.866Z,990.08
2023-05-06T06:03:46.998Z,990.10
2023-05-06T06:04:46.838Z,990.20
2023-05-06T06:05:46.786Z,990.14
2023-05-06T06:06:46.786Z,990.09
2023-05-06T06:07:46.771Z,990.04
2023-05-06T06:08:46.787Z,989.99
2023-05-06T06:09:46.800Z,989.98
2023-05-06T06:10:46.751Z,990.01
2023-05-06T06:11:46.735Z,989.97
2023-05-06T06:12:46.766Z,989.95
2023-05-06T06:13:46.720Z,989.93
2023-05-06T06:14:46.748Z,989.87
2023-05-06T06:15:46.781Z,989.93
2023-05-06T06:16:46.767Z,989.89
2023-05-06T06:17:46.743Z,990.04
2023-05-06T06:18:46.707Z,990.00
2023-05-06T06:19:46.705Z,990.03
2023-05-06T06:20:46.651Z,990.03
2023-05-06T06:21:46.643Z,990.06
2023-05-06T06:22:46.706Z,990.02
2023-05-06T06:23:46.655Z,990.10
2023-05-06T06:24:46.611Z,990.17
2023-05-06T06:25:46.602Z,990.11
2023-05-06T06:26:46.586Z,990.14
2023-05-06T06:27:46.610Z,990.13
2023-05-06T06:28:46.603Z,990.20
2023-05-06T06:29:46.633Z,990.07
2023-05-06T06:30:46.554Z,990.12
2023-05-06T06:31:46.629Z,990.12
2023-05-06T06:32:46.565Z,990.26
2023-05-06T06:33:46.568Z,990.26
2023-05-06T06:34:46.514Z,990.18
2023-05-06T06:35:46.521Z,990.19
2023-05-06T06:36:46.496Z,990.37
2023-05-06T06:37:46.492Z,990.26
2023-05-06T06:38:46.506Z,990.24
2023-05-06T06:39:46.489Z,990.22
2023-05-06T06:40:46.485Z,990.28
2023-05-06T06:41:46.448Z,990.24
2023-05-06T06:42:46.441Z,990.24
2023-05-06T06:43:46.456Z,990.19
2023-05-06T06:44:46.428Z,990.30
2023-05-06T06:45:46.472Z,990.21
2023-05-06T06:46:46.403Z,990.19
2023-05-06T06:47:46.418Z,990.19
2023-05-06T06:48:46.390Z,990.41
2023-05-06T06:49:46.374Z,990.28
2023-05-06T06:50:47.385Z,990.19
2023-05-06T06:51:46.353Z,990.20
2023-05-06T06:52:46.353Z,990.25
2023-05-06T06:53:46.403Z,990.22
2023-05-06T06:54:46.335Z,990.25
2023-05-06T06:55:46.335Z,990.27
2023-05-06T06:56:46.324Z,990.24
2023-05-06T06:57:47.305Z,990.23
2023-05-06T06:58:46.290Z,990.19
2023-05-06T06:59:46.273Z,990.29
2023-05-06T07:00:46.294Z,990.30
2023-05-06T07:01:46.336Z,990.35
2023-05-06T07:02:46.329Z,990.24
2023-05-06T07:03:46.291Z,990.42
2023-05-06T07:04:46.272Z,990.28
2023-05-06T07:05:46.238Z,990.37
2023-05-06T07:06:46.240Z,990.32
2023-05-06T07:07:46.230Z,990.39
2023-05-06T07:08:46.196Z,990.40
2023-05-06T07:09:46.187Z,990.35
2023-05-06T07:10:46.240Z,990.29
2023-05-06T07:11:46.170Z,990.28
2023-05-06T07:12:46.230Z,990.31
2023-05-06T07:13:46.260Z,990.21
2023-05-06T07:14:46.156Z,990.31
2023-05-06T07:15:46.141Z,990.24
2023-05-06T07:16:47.092Z,990.22
2023-05-06T07:17:47.137Z,990.21
2023-05-06T07:18:46.110Z,990.22
2023-05-06T07:19:46.096Z,990.22
2023-05-06T07:20:46.078Z,990.18
2023-05-06T07:21:46.140Z,990.12
2023-05-06T07:22:46.068Z,990.24
2023-05-06T07:23:46.081Z,990.10
2023-05-06T07:24:46.044Z,990.14
2023-05-06T07:25:46.036Z,990.31
2023-05-06T07:26:46.152Z,990.16
2023-05-06T07:27:46.044Z,990.26
2023-05-06T07:28:46.020Z,990.26
2023-05-06T07:29:46.013Z,990.19
2023-05-06T07:30:46.074Z,990.29
2023-05-06T07:31:45.984Z,990.23
2023-05-06T07:32:46.009Z,990.19
2023-05-06T07:33:45.967Z,990.25
2023-05-06T07:34:45.971Z,990.17
2023-05-06T07:35:45.942Z,990.21
2023-05-06T07:36:45.943Z,990.25
2023-05-06T07:37:45.976Z,990.27
2023-05-06T07:38:45.928Z,990.32
2023-05-06T07:39:45.941Z,990.36
2023-05-06T07:40:45.905Z,990.38
2023-05-06T07:41:45.892Z,990.31
2023-05-06T07:42:45.879Z,990.35
2023-05-06T07:43:45.881Z,990.27
2023-05-06T07:44:45.873Z,990.26
2023-05-06T07:45:45.847Z,990.21
2023-05-06T07:46:45.910Z,990.24
2023-05-06T07:47:45.993Z,990.16
2023-05-06T07:48:45.895Z,990.17
2023-05-06T07:49:45.873Z,990.14
2023-05-06T07:50:45.814Z,990.18
2023-05-06T07:51:45.799Z,990.16
2023-05-06T07:52:45.794Z,990.08
2023-05-06T07:53:45.771Z,990.12
2023-05-06T07:54:45.865Z,990.16
2023-05-06T07:55:45.763Z,990.10
2023-05-06T07:56:45.746Z,990.13
2023-05-06T07:57:45.766Z,990.10
2023-05-06T07:58:45.735Z,990.07
2023-05-06T07:59:45.724Z,990.04
2023-05-06T08:00:45.721Z,990.09
2023-05-06T08:01:45.725Z,990.16
2023-05-06T08:02:45.763Z,990.11
2023-05-06T08:03:45.864Z,990.04
2023-05-06T08:04:45.771Z,990.07
2023-05-06T08:05:45.705Z,990.13
2023-05-06T08:06:45.647Z,990.08
2023-05-06T08:07:45.669Z,990.05
2023-05-06T08:08:45.642Z,990.06
2023-05-06T08:09:45.626Z,990.07
2023-05-06T08:10:45.653Z,990.14
2023-05-06T08:11:45.723Z,990.11
2023-05-06T08:12:45.715Z,990.08
2023-05-06T08:13:45.595Z,990.12
2023-05-06T08:14:45.599Z,990.11
2023-05-06T08:15:45.617Z,990.08
2023-05-06T08:16:45.604Z,990.14
2023-05-06T08:17:45.599Z,990.21
2023-05-06T08:18:45.584Z,990.23
2023-05-06T08:19:45.555Z,990.35
2023-05-06T08:20:45.546Z,990.27
2023-05-06T08:21:45.528Z,990.24
2023-05-06T08:22:45.527Z,990.22
2023-05-06T08:23:45.525Z,990.30
2023-05-06T08:24:45.595Z,990.32
2023-05-06T08:25:45.515Z,990.36
2023-05-06T08:26:45.513Z,990.31
2023-05-06T08:27:45.489Z,990.37
2023-05-06T08:28:45.468Z,990.46
2023-05-06T08:29:45.448Z,990.38
2023-05-06T08:30:45.500Z,990.37
2023-05-06T08:31:45.490Z,990.28
2023-05-06T08:32:45.434Z,990.40
2023-05-06T08:33:45.413Z,990.38
2023-05-06T08:34:45.397Z,990.36
2023-05-06T08:35:45.423Z,990.30
2023-05-06T08:36:45.381Z,990.28
2023-05-06T08:37:45.369Z,990.25
2023-05-06T08:38:45.378Z,990.38
2023-05-06T08:39:45.370Z,990.35
2023-05-06T08:40:45.404Z,990.32
2023-05-06T08:41:45.411Z,990.30
2023-05-06T08:42:45.318Z,990.38
2023-05-06T08:43:45.401Z,990.31
2023-05-06T08:44:45.344Z,990.29
2023-05-06T08:45:45.391Z,990.28
2023-05-06T08:46:45.370Z,990.29
2023-05-06T08:47:45.336Z,990.29
2023-05-06T08:48:45.422Z,990.25
2023-05-06T08:49:45.362Z,990.29
2023-05-06T08:50:45.248Z,990.28
2023-05-06T08:51:45.256Z,990.31
2023-05-06T08:52:45.254Z,990.30
2023-05-06T08:53:45.244Z,990.34
2023-05-06T08:54:45.276Z,990.33
2023-05-06T08:55:45.221Z,990.30
2023-05-06T08:56:45.219Z,990.30
2023-05-06T08:57:45.176Z,990.33
2023-05-06T08:58:45.175Z,990.29
2023-05-06T08:59:45.174Z,990.29
2023-05-06T09:00:45.166Z,990.32
2023-05-06T09:01:45.224Z,990.32
2023-05-06T09:02:45.266Z,990.34
2023-05-06T09:03:45.152Z,990.34
2023-05-06T09:04:45.150Z,990.32
2023-05-06T09:05:45.106Z,990.31
2023-05-06T09:06:45.116Z,990.31
2023-05-06T09:07:45.112Z,990.28
2023-05-06T09:08:45.106Z,990.32
2023-05-06T09:09:45.088Z,990.33
2023-05-06T09:10:45.065Z,990.30
2023-05-06T09:11:45.072Z,990.31
2023-05-06T09:12:45.082Z,990.28
2023-05-06T09:13:45.036Z,990.33
2023-05-06T09:14:45.087Z,990.33
2023-05-06T09:15:45.010Z,990.33
2023-05-06T09:16:45.081Z,990.38
2023-05-06T09:17:45.021Z,990.38
2023-05-06T09:18:44.978Z,990.35
2023-05-06T09:19:44.975Z,990.40
2023-05-06T09:20:44.997Z,990.41
2023-05-06T09:21:44.987Z,990.39
2023-05-06T09:22:44.967Z,990.37
2023-05-06T09:23:44.983Z,990.31
2023-05-06T09:24:44.919Z,990.35
2023-05-06T09:25:45.936Z,990.38
2023-05-06T09:26:52.620Z,990.35
2023-05-06T09:27:44.894Z,990.29
2023-05-06T09:28:45.884Z,990.24
2023-05-06T09:29:44.901Z,990.27
2023-05-06T09:30:44.937Z,990.25
2023-05-06T09:31:44.861Z,990.28
2023-05-06T09:32:44.880Z,990.25
2023-05-06T09:33:44.888Z,990.28
2023-05-06T09:34:44.910Z,990.33
2023-05-06T09:35:44.820Z,990.33
2023-05-06T09:36:44.874Z,990.32
2023-05-06T09:37:44.804Z,990.28
2023-05-06T09:38:44.797Z,990.33
2023-05-06T09:39:44.783Z,990.33
2023-05-06T09:40:44.788Z,990.41
2023-05-06T09:41:44.867Z,990.29
2023-05-06T09:42:44.763Z,990.29
2023-05-06T09:43:44.781Z,990.32
2023-05-06T09:44:44.799Z,990.29
2023-05-06T09:45:44.726Z,990.24
2023-05-06T09:46:44.727Z,990.27
2023-05-06T09:47:44.763Z,990.26
2023-05-06T09:48:44.690Z,990.32
2023-05-06T09:49:44.763Z,990.28
2023-05-06T09:50:44.728Z,990.30
2023-05-06T09:51:44.724Z,990.27
2023-05-06T09:52:44.666Z,990.26
2023-05-06T09:53:44.671Z,990.22
2023-05-06T09:54:44.662Z,990.25
2023-05-06T09:55:44.621Z,990.20
2023-05-06T09:56:44.649Z,990.26
2023-05-06T09:57:44.629Z,990.18
2023-05-06T09:58:45.601Z,990.21
2023-05-06T09:59:44.606Z,990.25
2023-05-06T10:00:44.604Z,990.17
2023-05-06T10:01:44.604Z,990.13
2023-05-06T10:02:44.895Z,990.15
2023-05-06T10:03:44.675Z,990.12
2023-05-06T10:04:45.979Z,990.15
2023-05-06T10:05:44.629Z,990.16
2023-05-06T10:06:44.644Z,990.16
2023-05-06T10:07:44.609Z,990.15
2023-05-06T10:08:44.596Z,990.14
2023-05-06T10:09:44.611Z,990.14
2023-05-06T10:10:45.495Z,990.08
2023-05-06T10:11:44.486Z,990.10
2023-05-06T10:12:44.659Z,990.07
2023-05-06T10:13:44.535Z,990.04
2023-05-06T10:14:44.451Z,990.09
2023-05-06T10:15:44.590Z,990.03
2023-05-06T10:16:44.618Z,990.03
2023-05-06T10:17:44.492Z,990.06
2023-05-06T10:18:44.524Z,990.06
2023-05-06T10:19:44.414Z,990.02
2023-05-06T10:20:44.402Z,990.02
2023-05-06T10:21:44.402Z,990.06
2023-05-06T10:22:44.429Z,989.96
2023-05-06T10:23:44.385Z,989.97
2023-05-06T10:24:44.467Z,989.95
2023-05-06T10:25:44.344Z,989.93
2023-05-06T10:26:44.372Z,990.02
2023-05-06T10:27:44.455Z,990.04
2023-05-06T10:28:44.325Z,989.99
2023-05-06T10:29:44.320Z,989.98
2023-05-06T10:30:44.372Z,989.95
2023-05-06T10:31:44.335Z,989.95
2023-05-06T10:32:44.285Z,989.98
2023-05-06T10:33:44.321Z,989.96
2023-05-06T10:34:44.266Z,989.94
2023-05-06T10:35:44.272Z,989.88
2023-05-06T10:36:44.246Z,989.87
2023-05-06T10:37:44.230Z,989.83
2023-05-06T10:38:44.244Z,989.89
2023-05-06T10:39:44.216Z,989.95
2023-05-06T10:40:44.297Z,989.87
2023-05-06T10:41:44.206Z,989.82
2023-05-06T10:42:44.191Z,989.83
2023-05-06T10:43:44.177Z,989.89
2023-05-06T10:44:46.100Z,989.85
2023-05-06T10:45:44.224Z,989.80
2023-05-06T10:46:44.139Z,989.92
2023-05-06T10:47:44.225Z,989.86
2023-05-06T10:48:44.212Z,989.87
2023-05-06T10:49:44.105Z,989.80
2023-05-06T10:50:46.677Z,989.83
2023-05-06T10:51:44.113Z,989.82
2023-05-06T10:52:44.098Z,989.78
2023-05-06T10:53:44.081Z,989.73
2023-05-06T10:54:44.140Z,989.81
2023-05-06T10:55:44.053Z,989.77
2023-05-06T10:56:46.335Z,989.70
2023-05-06T10:57:44.041Z,989.75
2023-05-06T10:58:44.048Z,989.71
2023-05-06T10:59:44.039Z,989.67
2023-05-06T11:00:44.016Z,989.64
2023-05-06T11:01:44.007Z,989.68
2023-05-06T11:02:46.175Z,989.71
2023-05-06T11:03:44.028Z,989.60
2023-05-06T11:04:43.994Z,989.64
2023-05-06T11:05:44.969Z,989.66
2023-05-06T11:06:43.957Z,989.65
2023-05-06T11:07:43.965Z,989.67
2023-05-06T11:08:46.461Z,989.69
2023-05-06T11:09:43.955Z,989.66
2023-05-06T11:10:44.022Z,989.64
2023-05-06T11:11:43.922Z,989.68
2023-05-06T11:12:43.960Z,989.61
2023-05-06T11:13:43.873Z,989.68
2023-05-06T11:14:43.875Z,989.63
2023-05-06T11:15:43.867Z,989.64
2023-05-06T11:16:43.947Z,989.57
2023-05-06T11:17:43.853Z,989.68
2023-05-06T11:18:43.875Z,989.58
2023-05-06T11:19:43.840Z,989.57
2023-05-06T11:20:43.819Z,989.62
2023-05-06T11:21:43.855Z,989.60
2023-05-06T11:22:43.796Z,989.67
2023-05-06T11:23:43.805Z,989.68
2023-05-06T11:24:43.792Z,989.63
2023-05-06T11:25:43.874Z,989.69
2023-05-06T11:26:43.811Z,989.63
2023-05-06T11:27:43.743Z,989.68
2023-05-06T11:28:43.760Z,989.70
2023-05-06T11:29:43.721Z,989.66
2023-05-06T11:30:43.753Z,989.63
2023-05-06T11:31:43.760Z,989.56
2023-05-06T11:32:43.738Z,989.59
2023-05-06T11:33:43.712Z,989.63
2023-05-06T11:34:43.686Z,989.62
2023-05-06T11:35:43.663Z,989.59
2023-05-06T11:36:43.657Z,989.66
2023-05-06T11:37:43.664Z,989.61
2023-05-06T11:38:43.660Z,989.61
2023-05-06T11:39:43.641Z,989.62
2023-05-06T11:40:43.625Z,989.57
2023-05-06T11:41:43.702Z,989.59
2023-05-06T11:42:43.662Z,989.54
2023-05-06T11:43:43.590Z,989.54
2023-05-06T11:44:43.592Z,989.58
2023-05-06T11:45:43.612Z,989.51
2023-05-06T11:46:43.732Z,989.60
2023-05-06T11:47:43.592Z,989.52
2023-05-06T11:48:43.531Z,989.53
2023-05-06T11:49:43.515Z,989.53
2023-05-06T11:50:43.568Z,989.57
2023-05-06T11:51:43.521Z,989.50
2023-05-06T11:52:43.507Z,989.54
2023-05-06T11:53:43.489Z,989.53
2023-05-06T11:54:43.581Z,989.56
2023-05-06T11:55:43.485Z,989.54
2023-05-06T11:56:43.469Z,989.54
2023-05-06T11:57:43.482Z,989.47
2023-05-06T11:58:43.465Z,989.51
2023-05-06T11:59:43.430Z,989.56
2023-05-06T12:00:43.417Z,989.58
2023-05-06T12:01:43.409Z,989.49
2023-05-06T12:02:43.435Z,989.49
2023-05-06T12:03:43.564Z,989.48
2023-05-06T12:04:43.426Z,989.52
2023-05-06T12:05:44.370Z,989.60
2023-05-06T12:06:43.471Z,989.50
2023-05-06T12:07:43.367Z,989.54
2023-05-06T12:08:43.356Z,989.55
2023-05-06T12:09:43.373Z,989.62
2023-05-06T12:10:43.322Z,989.55
2023-05-06T12:11:44.850Z,989.63
2023-05-06T12:12:43.383Z,989.55
2023-05-06T12:13:43.288Z,989.48
2023-05-06T12:14:43.364Z,989.46
2023-05-06T12:15:43.299Z,989.48
2023-05-06T12:16:43.398Z,989.50
2023-05-06T12:17:43.306Z,989.56
2023-05-06T12:18:43.243Z,989.57
2023-05-06T12:19:43.237Z,989.60
2023-05-06T12:20:43.229Z,989.56
2023-05-06T12:21:43.233Z,989.56
2023-05-06T12:22:43.223Z,989.57
2023-05-06T12:23:43.273Z,989.55
2023-05-06T12:24:43.208Z,989.50
2023-05-06T12:25:43.185Z,989.52
2023-05-06T12:26:43.164Z,989.55
2023-05-06T12:27:43.180Z,989.50
2023-05-06T12:28:43.146Z,989.57